Time;durP1;ratioP1;P1;durP2;ratioP2;P2;SDS_P1;SDS_P2;PMS_P1;PMS_P2;Temp;Humidity;BMP_temperature;BMP_pressure;BME280_temperature;BME280_humidity;BME280_pressure;Samples;Min_cycle;Max_cycle;Signal;HPM_P1;HPM_P2
2022/09/12 00:01:56;;;;;;;;;;;;;;;21.93;69.29;100038.72;4958158;28;19919;-79
2022/09/12 00:04:22;;;;;;;;;;;;;;;21.93;69.10;100035.09;4957614;28;19918;-78
2022/09/12 00:06:47;;;;;;;;;;;;;;;21.92;69.02;100034.31;4957136;29;19918;-79
2022/09/12 00:09:13;;;;;;;;;;;;;;;21.92;69.10;100033.53;4957496;29;19941;-81
2022/09/12 00:11:39;;;;;;;;;;;;;;;21.89;68.79;100023.06;4958276;28;19918;-79
2022/09/12 00:14:05;;;;;;;;;;;;;;;21.86;68.64;100027.59;4956405;29;19923;-80
2022/09/12 00:16:32;;;;;;;;;;;;;;;21.84;68.77;100027.25;4956646;29;19923;-78
2022/09/12 00:18:57;;;;;;;;;;;;;;;21.82;69.05;100024.06;4956226;29;19965;-80
2022/09/12 00:21:22;;;;;;;;;;;;;;;21.81;69.34;100021.66;4956247;29;19946;-78
2022/09/12 00:23:49;;;;;;;;;;;;;;;21.82;69.36;100018.38;4956203;29;19925;-78
2022/09/12 00:26:16;;;;;;;;;;;;;;;21.81;69.19;100022.47;4956439;29;20372;-80
2022/09/12 00:28:43;;;;;;;;;;;;;;;21.82;69.03;100018.38;4955178;29;20201;-78
2022/09/12 00:31:10;;;;;;;;;;;;;;;21.79;68.86;100015.66;4956066;29;19934;-81
2022/09/12 00:33:36;;;;;;;;;;;;;;;21.76;69.15;100019.38;4956566;29;19938;-79
2022/09/12 00:36:05;;;;;;;;;;;;;;;21.71;69.31;100015.84;4957276;28;19922;-80
2022/09/12 00:38:31;;;;;;;;;;;;;;;21.74;69.16;100016.19;4955887;28;19918;-77
2022/09/12 00:40:56;;;;;;;;;;;;;;;21.73;69.54;100008.91;4959678;28;19993;-80
2022/09/12 00:43:40;;;;;;;;;;;;;;;21.72;68.89;100013.78;4959082;28;19924;-80
2022/09/12 00:46:09;;;;;;;;;;;;;;;21.66;69.05;100012.75;4959009;28;19918;-78
2022/09/12 00:48:38;;;;;;;;;;;;;;;21.65;69.25;100009.13;4958931;28;19925;-81
2022/09/12 00:51:03;;;;;;;;;;;;;;;21.62;69.51;100009.19;4959183;28;20332;-79
2022/09/12 00:53:28;;;;;;;;;;;;;;;21.60;69.72;100006.81;4959477;28;19918;-78
2022/09/12 00:55:55;;;;;;;;;;;;;;;21.58;69.18;100017.00;4959093;28;20373;-80
2022/09/12 00:58:22;;;;;;;;;;;;;;;21.64;68.65;100012.41;4959296;28;19918;-80
2022/09/12 01:01:06;;;;;;;;;;;;;;;21.64;68.65;100012.41;4959346;28;20088;-78
2022/09/12 01:03:31;;;;;;;;;;;;;;;21.71;67.89;100003.72;4975986;28;19957;-80
2022/09/12 01:06:07;;;;;;;;;;;;;;;21.61;68.13;100001.94;4975698;28;20295;-79
2022/09/12 01:08:36;;;;;;;;;;;;;;;21.55;68.83;100009.38;4958885;28;19925;-81
2022/09/12 01:11:01;;;;;;;;;;;;;;;21.52;68.76;100004.59;4958526;28;19922;-80
2022/09/12 01:13:27;;;;;;;;;;;;;;;21.52;68.68;99998.94;4975890;28;19926;-80
2022/09/12 01:15:53;;;;;;;;;;;;;;;21.50;69.10;99998.59;4958235;28;19918;-80
2022/09/12 01:18:24;;;;;;;;;;;;;;;21.53;68.41;100001.34;4958948;28;19918;-80
2022/09/12 01:20:56;;;;;;;;;;;;;;;21.48;68.56;99992.59;4958388;28;19918;-80
2022/09/12 01:23:38;;;;;;;;;;;;;;;21.47;68.69;99993.81;4958931;28;19922;-80
2022/09/12 01:26:22;;;;;;;;;;;;;;;21.47;68.60;99993.81;4958334;28;19922;-79
2022/09/12 01:28:47;;;;;;;;;;;;;;;21.42;68.75;99986.66;4976198;28;19959;-80
2022/09/12 01:31:12;;;;;;;;;;;;;;;21.45;69.02;99997.09;4975623;28;20258;-80
2022/09/12 01:33:38;;;;;;;;;;;;;;;21.50;68.80;99993.72;4958489;28;19918;-80
2022/09/12 01:36:26;;;;;;;;;;;;;;;21.41;68.36;99994.34;4975564;28;19941;-79
2022/09/12 01:38:59;;;;;;;;;;;;;;;21.41;68.44;99991.53;4957758;28;19922;-79
2022/09/12 01:41:52;;;;;;;;;;;;;;;21.51;67.43;99991.69;4975460;28;19954;-79
2022/09/12 01:44:30;;;;;;;;;;;;;;;21.43;68.26;99986.22;4958111;28;19918;-78
2022/09/12 01:47:07;;;;;;;;;;;;;;;21.38;68.54;99988.78;4958637;28;19918;-80
2022/09/12 01:49:37;;;;;;;;;;;;;;;21.36;68.79;99989.22;4975319;28;19918;-79
2022/09/12 01:52:08;;;;;;;;;;;;;;;21.35;68.24;99987.59;4957971;28;19918;-80
2022/09/12 01:54:38;;;;;;;;;;;;;;;21.33;68.88;99981.59;4958505;28;19918;-80
2022/09/12 01:57:09;;;;;;;;;;;;;;;21.29;69.09;99986.50;4957960;28;19918;-80
2022/09/12 01:59:38;;;;;;;;;;;;;;;21.29;68.22;99980.84;4957918;28;19918;-80
2022/09/12 02:02:20;;;;;;;;;;;;;;;21.31;68.32;99984.09;4958475;28;20301;-80
2022/09/12 02:04:57;;;;;;;;;;;;;;;21.25;68.56;99980.13;4958742;28;20281;-80
2022/09/12 02:07:28;;;;;;;;;;;;;;;21.20;68.28;99980.69;4975472;28;19918;-79
2022/09/12 02:09:56;;;;;;;;;;;;;;;21.14;68.41;99985.25;4958405;28;19984;-80
2022/09/12 02:12:25;;;;;;;;;;;;;;;21.16;68.80;99991.28;4957874;28;20409;-79
2022/09/12 02:14:53;;;;;;;;;;;;;;;21.13;68.54;99978.81;4958609;28;20359;-80
2022/09/12 02:17:21;;;;;;;;;;;;;;;21.10;68.21;99991.03;4974836;28;19918;-79
2022/09/12 02:19:51;;;;;;;;;;;;;;;21.07;68.14;99983.41;4957963;28;19945;-79
2022/09/12 02:22:19;;;;;;;;;;;;;;;21.13;67.08;99981.63;4960786;28;19934;-80
2022/09/12 02:24:46;;;;;;;;;;;;;;;21.11;67.25;99983.31;4979247;28;19922;-79
2022/09/12 02:27:30;;;;;;;;;;;;;;;21.07;67.12;99985.44;4978616;28;19926;-79
2022/09/12 02:29:56;;;;;;;;;;;;;;;21.01;67.73;99976.69;4962213;28;19918;-80
2022/09/12 02:32:21;;;;;;;;;;;;;;;21.00;67.33;99979.94;4979591;28;19922;-80
2022/09/12 02:34:48;;;;;;;;;;;;;;;20.92;67.86;99974.44;4961381;28;20430;-80
2022/09/12 02:37:32;;;;;;;;;;;;;;;20.92;68.50;99980.09;4979303;28;20353;-80
2022/09/12 02:39:58;;;;;;;;;;;;;;;20.88;68.66;99978.59;4957705;29;19961;-80
2022/09/12 02:42:24;;;;;;;;;;;;;;;20.89;68.49;99977.38;4958363;29;20000;-80
2022/09/12 02:44:50;;;;;;;;;;;;;;;20.92;67.55;99980.09;4958577;29;20022;-80
2022/09/12 02:47:18;;;;;;;;;;;;;;;20.95;66.97;99983.31;4958980;28;19966;-80
2022/09/12 02:49:44;;;;;;;;;;;;;;;20.90;67.34;99978.94;4958637;29;20424;-80
2022/09/12 02:52:09;;;;;;;;;;;;;;;20.83;67.09;99979.13;4957928;29;19923;-80
2022/09/12 02:54:36;;;;;;;;;;;;;;;20.80;67.32;99989.25;4957856;29;20024;-80
2022/09/12 02:57:02;;;;;;;;;;;;;;;20.76;67.13;99987.75;4959680;28;19923;-81
2022/09/12 02:59:27;;;;;;;;;;;;;;;20.76;67.20;99982.88;4957986;29;20021;-78
2022/09/12 03:02:04;;;;;;;;;;;;;;;20.73;67.10;99989.44;4957994;29;20365;-79
2022/09/12 03:04:46;;;;;;;;;;;;;;;20.75;67.31;99986.16;4958227;29;19918;-80
2022/09/12 03:07:23;;;;;;;;;;;;;;;20.73;67.25;99995.09;4959204;28;20401;-80
2022/09/12 03:10:07;;;;;;;;;;;;;;;20.70;67.26;99990.28;4958429;29;19918;-79
2022/09/12 03:12:46;;;;;;;;;;;;;;;20.73;66.66;99992.25;4958342;29;20321;-78
2022/09/12 03:15:12;;;;;;;;;;;;;;;20.65;67.15;99996.47;4957762;29;19922;-79
2022/09/12 03:17:40;;;;;;;;;;;;;;;20.64;66.88;99994.88;4957417;29;19925;-79
2022/09/12 03:20:05;;;;;;;;;;;;;;;20.62;66.57;99991.69;4957543;29;20281;-79
2022/09/12 03:22:46;;;;;;;;;;;;;;;20.63;66.40;99979.94;4957631;29;19929;-79
2022/09/12 03:25:11;;;;;;;;;;;;;;;20.65;65.95;99976.66;4957883;29;19985;-79
2022/09/12 03:28:00;;;;;;;;;;;;;;;20.65;65.73;99976.66;4957241;29;20361;-80
2022/09/12 03:30:25;;;;;;;;;;;;;;;20.68;65.22;99981.47;4948914;29;19918;-78
2022/09/12 03:32:52;;;;;;;;;;;;;;;20.66;65.44;99981.09;4958613;28;19918;-78
2022/09/12 03:35:18;;;;;;;;;;;;;;;20.64;64.60;99975.09;4957161;29;19957;-81
2022/09/12 03:37:43;;;;;;;;;;;;;;;20.65;64.40;99982.31;4957607;29;20016;-79
2022/09/12 03:40:10;;;;;;;;;;;;;;;20.63;64.65;99991.25;4956871;29;20346;-80
2022/09/12 03:42:36;;;;;;;;;;;;;;;20.66;64.03;99989.56;4958268;28;19919;-80
2022/09/12 03:45:01;;;;;;;;;;;;;;;20.71;63.13;99991.88;4956957;29;20341;-80
2022/09/12 03:47:26;;;;;;;;;;;;;;;20.70;63.15;99993.13;4956969;29;20021;-79
2022/09/12 03:49:51;;;;;;;;;;;;;;;20.58;63.62;99993.78;4956893;29;19926;-79
2022/09/12 03:52:17;;;;;;;;;;;;;;;20.50;65.00;99997.97;4956863;29;19925;-80
2022/09/12 03:54:42;;;;;;;;;;;;;;;20.50;64.06;99997.97;4957404;29;19919;-80
2022/09/12 03:57:08;;;;;;;;;;;;;;;20.44;62.94;99999.69;4956739;29;19953;-80
2022/09/12 03:59:33;;;;;;;;;;;;;;;20.42;63.28;99992.47;4957616;28;20069;-79
2022/09/12 04:01:58;;;;;;;;;;;;;;;20.51;62.62;99993.94;4956658;29;19918;-80
2022/09/12 04:04:24;;;;;;;;;;;;;;;20.45;63.26;99995.63;4957603;28;19926;-79
2022/09/12 04:06:49;;;;;;;;;;;;;;;20.46;63.47;100002.91;4957120;29;19925;-80
2022/09/12 04:09:14;;;;;;;;;;;;;;;20.46;61.33;100003.72;4956540;29;20362;-80
2022/09/12 04:11:40;;;;;;;;;;;;;;;20.50;61.25;100006.47;4956493;29;19926;-79
2022/09/12 04:14:05;;;;;;;;;;;;;;;20.48;62.25;100003.28;4956952;29;19918;-80
2022/09/12 04:16:31;;;;;;;;;;;;;;;20.48;61.84;100008.94;4956664;29;20325;-80
2022/09/12 04:18:56;;;;;;;;;;;;;;;20.55;61.03;100014.44;4956257;29;20448;-80
2022/09/12 04:21:21;;;;;;;;;;;;;;;20.51;60.86;100006.03;4956250;29;19966;-80
2022/09/12 04:23:47;;;;;;;;;;;;;;;20.41;60.99;100007.81;4956226;29;20009;-77
2022/09/12 04:26:13;;;;;;;;;;;;;;;20.46;60.66;100014.22;4956730;29;19919;-79
2022/09/12 04:28:38;;;;;;;;;;;;;;;20.44;58.83;100011.00;4956402;29;20322;-80
2022/09/12 04:31:06;;;;;;;;;;;;;;;20.38;60.19;100007.88;4957567;28;20018;-79
2022/09/12 04:33:32;;;;;;;;;;;;;;;20.42;59.83;100015.06;4957608;28;19922;-78
2022/09/12 04:36:01;;;;;;;;;;;;;;;20.46;60.44;100014.22;4957325;28;20377;-80
2022/09/12 04:38:27;;;;;;;;;;;;;;;20.40;59.88;100014.72;4956194;29;19918;-80
2022/09/12 04:40:55;;;;;;;;;;;;;;;20.38;59.92;100025.63;4955452;29;20297;-80
2022/09/12 04:43:20;;;;;;;;;;;;;;;20.39;59.13;100021.56;4956934;28;20354;-80
2022/09/12 04:45:45;;;;;;;;;;;;;;;20.45;59.19;100023.88;4955751;29;20017;-80
2022/09/12 04:48:11;;;;;;;;;;;;;;;20.39;58.16;100027.22;4956630;29;19922;-80
2022/09/12 04:50:36;;;;;;;;;;;;;;;20.41;59.09;100035.28;4956307;29;20357;-80
2022/09/12 04:53:01;;;;;;;;;;;;;;;20.38;59.40;100034.09;4955984;29;19945;-80
2022/09/12 04:55:26;;;;;;;;;;;;;;;20.44;59.76;100033.59;4955834;29;19919;-80
2022/09/12 04:57:52;;;;;;;;;;;;;;;21.05;58.19;100027.50;4957006;28;19925;-80
2022/09/12 05:00:17;;;;;;;;;;;;;;;21.81;55.21;100030.97;4956430;28;19925;-80
2022/09/12 05:02:42;;;;;;;;;;;;;;;22.53;52.57;100037.56;4955335;29;19919;-80
2022/09/12 05:05:08;;;;;;;;;;;;;;;23.30;51.12;100041.38;4955408;29;19918;-78
2022/09/12 05:07:38;;;;;;;;;;;;;;;23.99;48.75;100047.25;4957181;28;19919;-78
2022/09/12 05:10:03;;;;;;;;;;;;;;;24.61;46.43;100043.84;4955377;29;20024;-78
2022/09/12 05:12:29;;;;;;;;;;;;;;;25.21;44.65;100043.63;4955907;29;19975;-79
2022/09/12 05:14:55;;;;;;;;;;;;;;;25.47;44.06;100047.88;4956434;28;20373;-80
2022/09/12 05:17:20;;;;;;;;;;;;;;;26.09;43.06;100053.41;4955453;29;20034;-78
2022/09/12 05:19:46;;;;;;;;;;;;;;;26.48;40.91;100053.81;4955369;29;20281;-78
2022/09/12 05:22:11;;;;;;;;;;;;;;;26.90;39.27;100058.84;4955071;29;19922;-78
2022/09/12 05:24:38;;;;;;;;;;;;;;;27.35;39.30;100060.00;4955024;29;19925;-79
2022/09/12 05:27:03;;;;;;;;;;;;;;;27.72;38.30;100060.66;4956929;28;20099;-78
2022/09/12 05:29:29;;;;;;;;;;;;;;;28.09;37.06;100061.22;4955006;29;19954;-79
2022/09/12 05:31:54;;;;;;;;;;;;;;;28.64;35.73;100060.81;4956291;28;19918;-78
2022/09/12 05:34:19;;;;;;;;;;;;;;;29.15;35.90;100065.44;4955027;29;19961;-77
2022/09/12 05:36:45;;;;;;;;;;;;;;;28.49;35.38;100071.44;4956196;28;20009;-79
2022/09/12 05:39:10;;;;;;;;;;;;;;;28.77;35.07;100076.94;4954594;29;19922;-78
2022/09/12 05:41:36;;;;;;;;;;;;;;;29.32;35.37;100067.78;4955210;29;19930;-78
2022/09/12 05:44:05;;;;;;;;;;;;;;;29.88;33.59;100068.69;4955160;29;20385;-78
2022/09/12 05:46:34;;;;;;;;;;;;;;;30.07;33.32;100072.88;4956943;28;19919;-78
2022/09/12 05:49:04;;;;;;;;;;;;;;;30.19;32.67;100070.97;4954794;29;19926;-78
2022/09/12 05:51:32;;;;;;;;;;;;;;;30.24;32.44;100067.38;4954822;29;19919;-78
2022/09/12 05:53:58;;;;;;;;;;;;;;;30.76;31.67;100079.78;4956387;28;19918;-78
2022/09/12 05:56:28;;;;;;;;;;;;;;;30.99;30.98;100080.00;4955699;28;20269;-78
2022/09/12 05:58:55;;;;;;;;;;;;;;;31.20;31.00;100075.75;4955118;29;19919;-79
2022/09/12 06:01:20;;;;;;;;;;;;;;;31.53;30.63;100083.13;4954959;29;20013;-79
2022/09/12 06:03:47;;;;;;;;;;;;;;;31.81;30.60;100075.53;4954740;29;20405;-79
2022/09/12 06:06:13;;;;;;;;;;;;;;;31.81;29.99;100083.38;4955162;28;20362;-79
2022/09/12 06:08:39;;;;;;;;;;;;;;;31.87;29.45;100083.41;4954847;29;19918;-79
2022/09/12 06:11:05;;;;;;;;;;;;;;;32.09;28.71;100083.53;4956162;28;19918;-78
2022/09/12 06:13:32;;;;;;;;;;;;;;;32.34;28.32;100078.94;4956153;28;19918;-78
2022/09/12 06:16:08;;;;;;;;;;;;;;;32.05;28.77;100077.22;4955896;28;19919;-78
2022/09/12 06:18:34;;;;;;;;;;;;;;;32.32;28.09;100082.31;4954501;29;19919;-78
2022/09/12 06:21:26;;;;;;;;;;;;;;;32.53;28.09;100088.72;4956433;28;20009;-78
2022/09/12 06:23:52;;;;;;;;;;;;;;;32.72;27.39;100079.63;4951802;29;19918;-77
2022/09/12 06:26:22;;;;;;;;;;;;;;;32.75;27.37;100088.00;4956111;28;19965;-77
2022/09/12 06:28:47;;;;;;;;;;;;;;;32.80;28.13;100084.34;4955018;29;19926;-79
2022/09/12 06:31:17;;;;;;;;;;;;;;;32.85;27.80;100088.53;4955319;29;20370;-79
2022/09/12 06:33:47;;;;;;;;;;;;;;;33.29;27.17;100090.75;4954833;29;19925;-78
2022/09/12 06:36:15;;;;;;;;;;;;;;;33.59;25.98;100096.00;4954155;29;19946;-77
2022/09/12 06:38:41;;;;;;;;;;;;;;;32.95;25.63;100087.03;4956965;28;19965;-79
2022/09/12 06:41:07;;;;;;;;;;;;;;;32.76;26.23;100091.66;4958156;28;19918;-78
2022/09/12 06:43:33;;;;;;;;;;;;;;;32.32;27.30;100085.19;4974581;28;19918;-77
2022/09/12 06:45:58;;;;;;;;;;;;;;;32.80;26.91;100090.09;4957983;28;19941;-78
2022/09/12 06:48:24;;;;;;;;;;;;;;;33.01;26.05;100096.47;4974701;28;20365;-79
2022/09/12 06:51:03;;;;;;;;;;;;;;;33.24;25.72;100097.31;4958000;28;20258;-79
2022/09/12 06:53:29;;;;;;;;;;;;;;;32.68;25.56;100093.50;4958140;28;20040;-79
2022/09/12 06:55:55;;;;;;;;;;;;;;;32.97;25.80;100092.25;4974664;28;19923;-79
2022/09/12 06:58:21;;;;;;;;;;;;;;;33.52;26.17;100099.44;4957834;28;19922;-79
2022/09/12 07:00:46;;;;;;;;;;;;;;;33.44;25.86;100098.38;4957492;28;20369;-79
2022/09/12 07:03:11;;;;;;;;;;;;;;;32.34;27.63;100099.09;4957257;28;20436;-78
2022/09/12 07:05:37;;;;;;;;;;;;;;;32.48;26.34;100097.34;4974717;28;19918;-78
2022/09/12 07:08:02;;;;;;;;;;;;;;;32.42;27.05;100093.66;4977306;28;19919;-78
2022/09/12 07:10:28;;;;;;;;;;;;;;;33.04;25.89;100097.53;4960559;28;19918;-79
2022/09/12 07:12:53;;;;;;;;;;;;;;;32.59;26.56;100097.38;4960827;28;20068;-80
2022/09/12 07:15:18;;;;;;;;;;;;;;;32.63;26.00;100100.00;4978234;28;19941;-79
2022/09/12 07:17:44;;;;;;;;;;;;;;;33.27;25.30;100099.13;4978168;28;20448;-80
2022/09/12 07:20:09;;;;;;;;;;;;;;;31.97;26.30;100087.66;4960314;28;19925;-78
2022/09/12 07:22:34;;;;;;;;;;;;;;;31.97;26.13;100094.19;4977720;28;19922;-79
2022/09/12 07:25:00;;;;;;;;;;;;;;;31.96;25.50;100091.81;4977831;28;19918;-78
2022/09/12 07:27:25;;;;;;;;;;;;;;;31.76;25.84;100089.84;4960343;28;20337;-78
2022/09/12 07:29:50;;;;;;;;;;;;;;;32.27;25.36;100088.84;4960070;28;20328;-79
2022/09/12 07:32:16;;;;;;;;;;;;;;;32.38;25.80;100098.84;4977074;28;19918;-78
2022/09/12 07:34:41;;;;;;;;;;;;;;;31.44;26.36;100097.69;4960258;28;19996;-77
2022/09/12 07:37:07;;;;;;;;;;;;;;;31.32;26.65;100090.25;4976943;28;19941;-80
2022/09/12 07:39:32;;;;;;;;;;;;;;;31.15;26.63;100101.56;4956547;29;19930;-77
2022/09/12 07:41:59;;;;;;;;;;;;;;;30.94;26.77;100097.97;4956828;29;20251;-76
2022/09/12 07:44:25;;;;;;;;;;;;;;;31.12;26.54;100094.00;4956836;29;19918;-76
2022/09/12 07:46:51;;;;;;;;;;;;;;;31.42;26.42;100106.03;4957396;28;19919;-77
2022/09/12 07:49:16;;;;;;;;;;;;;;;32.39;25.35;100100.47;4957071;29;19919;-79
2022/09/12 07:51:42;;;;;;;;;;;;;;;32.43;24.85;100100.97;4957504;28;19922;-78
2022/09/12 07:54:08;;;;;;;;;;;;;;;33.08;24.19;100110.38;4956710;29;20317;-78
2022/09/12 07:56:33;;;;;;;;;;;;;;;33.62;23.65;100112.28;4957940;28;19961;-79
2022/09/12 07:58:59;;;;;;;;;;;;;;;33.51;22.86;100118.06;4957160;29;19922;-78
2022/09/12 08:01:24;;;;;;;;;;;;;;;33.65;23.28;100116.19;4956787;29;20262;-80
2022/09/12 08:03:53;;;;;;;;;;;;;;;33.79;23.51;100115.16;4956857;29;19918;-78
2022/09/12 08:06:20;;;;;;;;;;;;;;;33.72;22.60;100118.53;4957483;28;19925;-79
2022/09/12 08:08:46;;;;;;;;;;;;;;;33.28;23.45;100120.88;4956287;29;19918;-79
2022/09/12 08:11:12;;;;;;;;;;;;;;;33.46;23.66;100121.72;4956015;29;19918;-77
2022/09/12 08:13:38;;;;;;;;;;;;;;;34.10;22.33;100129.28;4956787;29;20365;-79
2022/09/12 08:16:05;;;;;;;;;;;;;;;34.16;22.71;100132.16;4957732;28;19925;-78
2022/09/12 08:18:31;;;;;;;;;;;;;;;33.93;21.58;100125.66;4956407;28;19971;-78
2022/09/12 08:21:01;;;;;;;;;;;;;;;34.35;21.63;100136.03;4955822;29;19918;-78
2022/09/12 08:23:29;;;;;;;;;;;;;;;34.90;21.20;100133.47;4955688;29;19925;-78
2022/09/12 08:25:56;;;;;;;;;;;;;;;35.25;20.29;100138.50;4957341;28;20354;-77
2022/09/12 08:28:21;;;;;;;;;;;;;;;35.44;20.35;100124.22;4956362;29;20285;-78
2022/09/12 08:30:46;;;;;;;;;;;;;;;35.20;20.12;100129.88;4955899;29;20050;-78
2022/09/12 08:33:12;;;;;;;;;;;;;;;35.29;20.18;100139.00;4957128;28;20053;-78
2022/09/12 08:35:37;;;;;;;;;;;;;;;35.88;19.71;100137.50;4955392;29;20286;-78
2022/09/12 08:38:02;;;;;;;;;;;;;;;35.94;19.54;100144.03;4957484;29;19918;-77
2022/09/12 08:40:28;;;;;;;;;;;;;;;35.52;18.78;100141.75;4955187;29;20262;-78
2022/09/12 08:43:01;;;;;;;;;;;;;;;35.43;19.26;100143.66;4955789;29;19925;-79
2022/09/12 08:45:35;;;;;;;;;;;;;;;33.76;20.55;100151.59;4955726;29;20005;-81
2022/09/12 08:48:03;;;;;;;;;;;;;;;33.66;20.91;100143.72;4955383;29;19923;-79
2022/09/12 08:50:28;;;;;;;;;;;;;;;34.30;20.41;100151.25;4956931;28;19957;-79
2022/09/12 08:53:02;;;;;;;;;;;;;;;33.91;20.55;100145.53;4955598;29;19961;-78
2022/09/12 08:55:27;;;;;;;;;;;;;;;34.54;20.88;100149.91;4957156;28;20347;-79
2022/09/12 08:57:52;;;;;;;;;;;;;;;34.48;19.87;100152.03;4955338;29;19966;-77
2022/09/12 09:00:18;;;;;;;;;;;;;;;34.37;20.09;100149.94;4955064;29;19918;-80
2022/09/12 09:03:03;;;;;;;;;;;;;;;32.93;22.54;100146.50;4955028;29;19922;-79
2022/09/12 09:05:31;;;;;;;;;;;;;;;32.58;22.03;100147.66;4956113;28;19918;-80
2022/09/12 09:08:29;;;;;;;;;;;;;;;33.52;21.79;100142.69;4955529;29;19919;-79
2022/09/12 09:11:17;;;;;;;;;;;;;;;34.44;20.22;100145.72;4934174;28;19961;-78
2022/09/12 09:16:51;;;;;;;;;;;;;;;36.08;19.00;100139.16;4943031;28;19925;-79
2022/09/12 09:19:27;;;;;;;;;;;;;;;35.88;18.72;100136.72;4956105;28;19918;-79
2022/09/12 09:22:04;;;;;;;;;;;;;;;35.76;18.86;100135.25;4955763;28;20061;-79
2022/09/12 09:24:42;;;;;;;;;;;;;;;36.11;19.29;100137.28;4956955;29;19919;-80
2022/09/12 09:27:10;;;;;;;;;;;;;;;36.34;19.20;100144.41;4956459;29;19957;-79
2022/09/12 09:29:40;;;;;;;;;;;;;;;36.38;19.07;100141.19;4954566;28;20020;-78
2022/09/12 09:32:12;;;;;;;;;;;;;;;35.85;18.83;100134.88;4954394;29;19918;-78
2022/09/12 09:34:38;;;;;;;;;;;;;;;36.37;18.87;100136.72;4956264;28;19989;-77
2022/09/12 09:37:15;;;;;;;;;;;;;;;36.97;18.45;100131.53;4955165;29;20338;-78
2022/09/12 09:39:43;;;;;;;;;;;;;;;36.97;18.47;100137.34;4954123;29;19966;-79
2022/09/12 09:42:17;;;;;;;;;;;;;;;35.69;19.17;100131.63;4954901;29;19926;-77
2022/09/12 09:44:45;;;;;;;;;;;;;;;35.94;19.08;100129.56;4954653;29;20436;-78
2022/09/12 09:47:11;;;;;;;;;;;;;;;36.05;18.46;100122.09;4954472;29;19918;-78
2022/09/12 09:49:37;;;;;;;;;;;;;;;35.75;19.17;100116.31;4954299;29;20022;-79
2022/09/12 09:52:04;;;;;;;;;;;;;;;35.99;18.75;100121.38;4954871;29;19961;-77
2022/09/12 09:54:37;;;;;;;;;;;;;;;35.90;18.35;100117.50;4954299;29;19922;-76
2022/09/12 09:57:04;;;;;;;;;;;;;;;34.02;19.82;100121.69;4956202;29;19925;-78
2022/09/12 09:59:32;;;;;;;;;;;;;;;32.66;20.44;100114.19;4955750;28;19918;-79
2022/09/12 10:02:18;;;;;;;;;;;;;;;32.27;21.32;100111.09;4954650;29;20006;-80
2022/09/12 10:04:54;;;;;;;;;;;;;;;32.90;21.48;100107.97;4956128;29;19961;-80
2022/09/12 10:07:22;;;;;;;;;;;;;;;33.85;20.78;100118.81;4954732;29;19919;-79
2022/09/12 10:10:06;;;;;;;;;;;;;;;33.62;20.47;100112.28;4955789;28;19925;-78
2022/09/12 10:12:32;;;;;;;;;;;;;;;33.07;21.58;100108.78;4954438;29;19922;-80
2022/09/12 10:15:03;;;;;;;;;;;;;;;31.91;22.23;100112.72;4954288;29;19918;-79
2022/09/12 10:17:30;;;;;;;;;;;;;;;32.81;22.75;100109.00;4954656;29;19918;-79
2022/09/12 10:19:55;;;;;;;;;;;;;;;33.85;21.73;100108.03;4955425;28;20436;-79
2022/09/12 10:22:23;;;;;;;;;;;;;;;33.04;21.42;100103.31;4954022;29;20013;-78
2022/09/12 10:24:51;;;;;;;;;;;;;;;32.26;22.35;100093.03;4955238;28;20354;-81
2022/09/12 10:27:38;;;;;;;;;;;;;;;32.43;20.90;100101.75;4954066;29;19926;-80
2022/09/12 10:30:03;;;;;;;;;;;;;;;32.88;21.31;100101.16;4951663;29;20266;-79
2022/09/12 10:32:35;;;;;;;;;;;;;;;32.80;21.02;100107.38;4954838;29;19918;-77
2022/09/12 10:35:07;;;;;;;;;;;;;;;33.26;20.39;100109.09;4954231;29;19918;-79
2022/09/12 10:37:34;;;;;;;;;;;;;;;32.86;19.99;100104.53;4954288;29;20362;-79
2022/09/12 10:40:01;;;;;;;;;;;;;;;32.53;20.83;100108.09;4953488;29;19922;-78
2022/09/12 10:42:45;;;;;;;;;;;;;;;32.32;21.75;100102.47;4956837;28;19918;-78
2022/09/12 10:45:30;;;;;;;;;;;;;;;32.59;20.77;100103.91;4958456;29;19919;-79
2022/09/12 10:47:57;;;;;;;;;;;;;;;30.82;24.52;100093.41;4957615;29;19918;-79
2022/09/12 10:50:25;;;;;;;;;;;;;;;30.57;24.62;100100.66;4957570;29;19973;-77
2022/09/12 10:52:51;;;;;;;;;;;;;;;30.42;24.42;100095.81;4958323;29;20016;-79
2022/09/12 10:55:16;;;;;;;;;;;;;;;30.81;24.92;100097.59;4958317;29;19962;-79
2022/09/12 10:57:50;;;;;;;;;;;;;;;31.43;22.67;100096.91;4958978;28;19929;-78
2022/09/12 11:00:19;;;;;;;;;;;;;;;31.08;22.96;100093.41;4957315;29;19919;-78
2022/09/12 11:02:48;;;;;;;;;;;;;;;30.74;23.61;100099.59;4957321;29;19923;-81
2022/09/12 11:05:18;;;;;;;;;;;;;;;31.43;22.44;100084.63;4958963;28;19980;-80
2022/09/12 11:07:46;;;;;;;;;;;;;;;31.48;21.92;100089.59;4958120;29;19923;-80
2022/09/12 11:10:21;;;;;;;;;;;;;;;32.33;21.14;100086.78;4957606;29;19926;-81
2022/09/12 11:13:08;;;;;;;;;;;;;;;31.55;21.67;100092.03;4957461;29;19918;-79
2022/09/12 11:15:38;;;;;;;;;;;;;;;32.47;21.49;100078.50;4957672;29;20274;-78
2022/09/12 11:18:14;;;;;;;;;;;;;;;32.84;21.73;100084.09;4958457;28;19997;-80
2022/09/12 11:20:52;;;;;;;;;;;;;;;33.07;21.98;100085.72;4956940;29;19922;-79
2022/09/12 11:23:23;;;;;;;;;;;;;;;32.72;22.43;100077.53;4957231;29;19919;-79
2022/09/12 11:26:07;;;;;;;;;;;;;;;33.25;21.59;100084.47;4957502;29;20018;-78
2022/09/12 11:28:32;;;;;;;;;;;;;;;32.44;22.22;100073.75;4957137;29;20284;-78
2022/09/12 11:31:03;;;;;;;;;;;;;;;32.43;21.89;100075.06;4958424;28;20014;-79
2022/09/12 11:33:29;;;;;;;;;;;;;;;32.06;21.37;100073.81;4957387;29;19918;-79
2022/09/12 11:35:56;;;;;;;;;;;;;;;31.31;22.51;100075.09;4957290;29;19973;-78
2022/09/12 11:38:31;;;;;;;;;;;;;;;31.63;21.90;100070.13;4956346;29;19918;-78
2022/09/12 11:41:14;;;;;;;;;;;;;;;31.43;22.58;100070.25;4977035;28;19929;-78
2022/09/12 11:43:40;;;;;;;;;;;;;;;31.74;23.25;100064.44;4960421;28;20281;-80
2022/09/12 11:46:31;;;;;;;;;;;;;;;32.15;22.30;100075.69;4960239;28;19918;-80
2022/09/12 11:49:12;;;;;;;;;;;;;;;32.73;22.33;100067.56;4977649;28;19918;-79
2022/09/12 11:51:43;;;;;;;;;;;;;;;32.86;21.84;100069.94;4959804;28;19950;-79
2022/09/12 11:54:31;;;;;;;;;;;;;;;33.03;22.22;100061.38;4977076;28;19965;-79
2022/09/12 11:57:05;;;;;;;;;;;;;;;33.21;21.93;100057.97;4951550;28;19918;-81
2022/09/12 11:59:34;;;;;;;;;;;;;;;32.57;22.30;100048.16;4959713;28;19925;-79
2022/09/12 12:02:00;;;;;;;;;;;;;;;32.34;23.36;100055.91;4960112;28;19918;-81
2022/09/12 12:04:38;;;;;;;;;;;;;;;31.79;24.06;100048.53;4960129;28;20369;-81
2022/09/12 12:07:06;;;;;;;;;;;;;;;32.00;24.25;100049.19;4960510;28;19925;-79
2022/09/12 12:09:31;;;;;;;;;;;;;;;32.07;23.73;100045.84;4959400;28;19923;-80
2022/09/12 12:12:00;;;;;;;;;;;;;;;31.90;24.07;100053.59;4960347;28;19966;-80
2022/09/12 12:14:36;;;;;;;;;;;;;;;31.63;23.42;100040.59;4960666;28;20407;-79
2022/09/12 12:17:02;;;;;;;;;;;;;;;31.39;23.97;100043.81;4962850;28;19922;-78
2022/09/12 12:19:30;;;;;;;;;;;;;;;31.45;24.27;100041.78;4977135;28;19969;-78
2022/09/12 12:22:16;;;;;;;;;;;;;;;31.39;24.10;100043.81;4975473;28;20393;-78
2022/09/12 12:24:53;;;;;;;;;;;;;;;31.22;24.33;100038.69;4959091;28;19925;-79
2022/09/12 12:27:23;;;;;;;;;;;;;;;31.02;24.72;100044.53;4959467;28;19918;-80
2022/09/12 12:29:48;;;;;;;;;;;;;;;31.29;24.50;100041.13;4976658;28;20332;-80
2022/09/12 12:32:18;;;;;;;;;;;;;;;31.57;24.38;100026.16;4976226;28;19918;-78
2022/09/12 12:34:44;;;;;;;;;;;;;;;31.94;24.06;100031.91;4976474;28;19929;-79
2022/09/12 12:37:19;;;;;;;;;;;;;;;32.33;23.51;100026.34;4959254;28;19941;-79
2022/09/12 12:39:44;;;;;;;;;;;;;;;32.32;23.30;100021.88;4958537;28;19973;-76
2022/09/12 12:42:30;;;;;;;;;;;;;;;32.66;23.26;100027.78;4976563;28;20008;-80
2022/09/12 12:44:55;;;;;;;;;;;;;;;32.67;22.89;100029.34;4958507;28;20061;-80
2022/09/12 12:47:22;;;;;;;;;;;;;;;32.86;22.61;100023.84;4958733;28;19965;-77
2022/09/12 12:49:50;;;;;;;;;;;;;;;33.21;21.98;100023.38;4976076;28;19918;-77
2022/09/12 12:52:17;;;;;;;;;;;;;;;33.16;21.77;100015.53;4975979;28;19973;-79